Flight Track Log - Related Links

Times and Time Zones

All times are in EDT time to prevent confusion due to time zone crossing. See the FFT938 flight status page for this flight to view local times or setup timezone preferences in your user account.

Time Position Orientation Groundspeed Altitude Reporting Facility
EDT Latitude Longitude Course Direction KTS MPH feet Rate Location/Type
Thu 09:48:36 AM 39.9960 -82.9190 272° West 165 190 1,700  Level FlightAware ADS-B
Thu 09:49:14 AM 39.9960 -82.9570 270° West 196 226 2,800 1,500 Climbing FlightAware ADS-B
Thu 09:49:32 AM 39.9960 -82.9790 270° West 228 262 3,100 2,108 Climbing FlightAware ADS-B
Thu 09:49:51 AM 39.9960 -83.0090 270° West 239 275 4,100 3,714 Climbing FlightAware ADS-B
Thu 09:50:14 AM 39.9940 -83.0410 265° West 235 270 5,700 3,771 Climbing FlightAware ADS-B
Thu 09:50:26 AM 39.9920 -83.0590 262° West 236 272 6,300 3,273 Climbing FlightAware ADS-B
Thu 09:50:36 AM 39.9870 -83.0720 243° Southwest 241 277 6,900 3,333 Climbing FlightAware ADS-B
Thu 09:50:44 AM 39.9820 -83.0800 231° Southwest 245 282 7,300 2,625 Climbing FlightAware ADS-B
Thu 09:50:52 AM 39.9740 -83.0860 210° Southwest 255 293 7,600 2,500 Climbing FlightAware ADS-B
Thu 09:50:56 AM 39.9690 -83.0880 197° South 262 302 7,800 1,636 Climbing FlightAware ADS-B
Thu 09:51:03 AM 39.9610 -83.0900 191° South 274 315 7,900 1,500 Climbing FlightAware ADS-B
Thu 09:51:12 AM 39.9490 -83.0890 176° South 289 333 8,200 2,471 Climbing FlightAware ADS-B
Thu 09:51:20 AM 39.9390 -83.0840 159° South 295 339 8,600 3,000 Climbing FlightAware ADS-B
Thu 09:51:24 AM 39.9340 -83.0810 155° Southeast 297 342 8,800 2,500 Climbing FlightAware ADS-B
Thu 09:51:32 AM 39.9260 -83.0720 139° Southeast 301 346 9,100 2,625 Climbing FlightAware ADS-B
Thu 09:51:40 AM 39.9180 -83.0600 131° Southeast 307 353 9,500 2,100 Climbing FlightAware ADS-B
Thu 09:51:52 AM 39.9100 -83.0390 116° Southeast 322 371 9,800 1,435 Climbing FlightAware ADS-B
Thu 09:52:26 AM 39.9040 -82.9720 97° East 361 415 10,600 2,000 Climbing FlightAware ADS-B
Thu 09:53:04 AM 39.8980 -82.8860 95° East 373 429 12,200 2,514 Climbing FlightAware ADS-B
Thu 09:53:40 AM 39.8930 -82.8020 94° East 386 444 13,700 2,500 Climbing FlightAware ADS-B
Thu 09:53:52 AM 39.8930 -82.7760 90° East 387 445 14,200 3,000 Climbing FlightAware ADS-B
Thu 09:54:24 AM 39.9050 -82.7040 78° East 380 437 15,900 2,438 Climbing FlightAware ADS-B
Thu 09:54:56 AM 39.9180 -82.6300 77° East 396 456 16,800 2,000 Climbing FlightAware ADS-B
Thu 09:55:36 AM 39.9350 -82.5360 77° East 404 465 18,300 2,270 Climbing FlightAware ADS-B
Thu 09:56:10 AM 39.9480 -82.4570 78° East 411 473 19,600 2,167 Climbing FlightAware ADS-B
Thu 09:56:48 AM 39.9650 -82.3610 77° East 421 484 20,900 1,971 Climbing FlightAware ADS-B
Thu 09:57:20 AM 39.9790 -82.2830 77° East 428 493 21,900 1,765 Climbing FlightAware ADS-B
Thu 09:57:56 AM 39.9950 -82.1900 77° East 437 503 22,900 1,459 Climbing FlightAware ADS-B
Thu 09:58:34 AM 40.0120 -82.0890 78° East 455 524 23,700 1,652 Climbing FlightAware ADS-B
Thu 09:59:05 AM 40.0250 -82.0090 78° East 450 518 24,800 2,328 Climbing FlightAware ADS-B
Thu 09:59:41 AM 40.0420 -81.9130 77° East 443 510 26,300 2,333 Climbing FlightAware ADS-B
Thu 10:00:17 AM 40.0570 -81.8200 78° East 441 507 27,600 2,063 Climbing FlightAware ADS-B
Thu 10:00:45 AM 40.0700 -81.7470 77° East 440 506 28,500 1,781 Climbing FlightAware ADS-B
Thu 10:01:21 AM 40.0850 -81.6560 78° East 439 505 29,500 1,750 Climbing FlightAware ADS-B
Thu 10:01:57 AM 40.1010 -81.5600 78° East 438 504 30,600 1,184 Climbing FlightAware ADS-B
Thu 10:02:37 AM 40.1170 -81.4570 78° East 440 506 31,000 316 Climbing FlightAware ADS-B
Thu 10:03:13 AM 40.1270 -81.3600 82° East 466 536 31,000  Level FlightAware ADS-B
Thu 10:03:49 AM 40.1360 -81.2550 84° East 474 545 31,000  Level FlightAware ADS-B
Thu 10:04:21 AM 40.1430 -81.1640 84° East 474 545 31,000  Level FlightAware ADS-B
Thu 10:04:57 AM 40.1520 -81.0640 83° East 477 549 31,000  Level FlightAware ADS-B
Thu 10:05:33 AM 40.1610 -80.9600 84° East 476 548 31,000  Level FlightAware ADS-B
Thu 10:06:07 AM 40.1680 -80.8650 84° East 477 549 31,000 91 Level FlightAware ADS-B
Thu 10:06:39 AM 40.1760 -80.7710 84° East 476 548 31,100  Climbing FlightAware ADS-B
Thu 10:07:17 AM 40.1850 -80.6640 84° East 475 547 31,000 -86 Descending FlightAware ADS-B
Thu 10:07:49 AM 40.1920 -80.5710 84° East 475 547 31,000  Level FlightAware ADS-B
Thu 10:08:26 AM 40.2000 -80.4700 84° East 475 547 31,000  Level FlightAware ADS-B
Thu 10:09:15 AM 40.2110 -80.3260 84° East 476 548 31,000  Level FlightAware ADS-B
Thu 10:09:49 AM 40.2190 -80.2290 84° East 477 549 31,000  Level FlightAware ADS-B
Thu 10:10:26 AM 40.2270 -80.1240 84° East 476 548 31,000  Level FlightAware ADS-B
Thu 10:11:16 AM 40.2370 -79.9930 84° East 477 549 31,000  Level FlightAware ADS-B
Thu 10:11:54 AM 40.2430 -79.9020 85° East 477 549 31,000  Level FlightAware ADS-B
Thu 10:12:33 AM 40.2540 -79.7570 84° East 477 549 31,000  Level FlightAware ADS-B
Thu 10:13:05 AM 40.2600 -79.6700 85° East 477 549 31,000  Level FlightAware ADS-B
Thu 10:13:41 AM 40.2680 -79.5640 84° East 478 550 31,000  Level FlightAware ADS-B
Thu 10:14:17 AM 40.2750 -79.4600 85° East 479 551 31,000  Level FlightAware ADS-B
Thu 10:14:53 AM 40.2820 -79.3550 85° East 477 549 31,000 87 Level FlightAware ADS-B
Thu 10:15:26 AM 40.2890 -79.2630 84° East 476 548 31,100  Climbing FlightAware ADS-B
Thu 10:16:03 AM 40.2960 -79.1570 85° East 474 545 31,000 -85 Descending FlightAware ADS-B
Thu 10:16:37 AM 40.3020 -79.0580 85° East 473 544 31,000  Level FlightAware ADS-B
Thu 10:17:13 AM 40.3090 -78.9580 85° East 472 543 31,000  Level FlightAware ADS-B
Thu 10:17:45 AM 40.3150 -78.8650 85° East 471 542 31,000  Level FlightAware ADS-B
Thu 10:18:19 AM 40.3170 -78.7710 88° East 467 537 31,000  Level FlightAware ADS-B
Thu 10:18:53 AM 40.3170 -78.6740 90° East 466 536 31,000  Level FlightAware ADS-B
Thu 10:19:29 AM 40.3160 -78.5750 91° East 465 535 31,000  Level FlightAware ADS-B
Thu 10:20:05 AM 40.3160 -78.4720 90° East 465 535 31,000 -417 Level FlightAware ADS-B
Thu 10:20:41 AM 40.3160 -78.3720 90° East 469 540 30,500 -1,462 Descending FlightAware ADS-B
Thu 10:21:23 AM 40.3150 -78.2580 91° East 468 539 29,100 -2,518 Descending FlightAware ADS-B
Thu 10:22:33 AM 40.3140 -78.0600 90° East 465 535 25,800 -1,817 Descending FlightAware ADS-B
Thu 10:23:12 AM 40.3140 -77.9670 90° East 465 535 25,800  Level FlightAware ADS-B
Thu 10:23:48 AM 40.3140 -77.8810 90° East 465 535 25,800 -522 Level FlightAware ADS-B
Thu 10:24:44 AM 40.3103 -77.7014 90° East 467 537 25,000 -943 Descending New York Center
Thu 10:30:29 AM 40.2170 -76.8170 90° East 399 459 19,500 -961 Descending FlightAware ADS-B
Thu 10:31:05 AM 40.2020 -76.7340 103° East 395 455 18,900 -986 Descending FlightAware ADS-B
Thu 10:31:42 AM 40.1860 -76.6490 104° East 392 451 18,300 -1,235 Descending FlightAware ADS-B
Thu 10:32:13 AM 40.1730 -76.5770 103° East 388 447 17,500 -1,522 Descending FlightAware ADS-B
Thu 10:32:49 AM 40.1590 -76.4990 103° East 382 440 16,600 -1,588 Descending FlightAware ADS-B
Thu 10:33:21 AM 40.1450 -76.4270 104° East 380 437 15,700 -1,750 Descending FlightAware ADS-B
Thu 10:33:37 AM 40.1400 -76.3900 100° East 378 435 15,200 -1,615 Descending FlightAware ADS-B
Thu 10:34:13 AM 40.1450 -76.3070 85° East 370 426 14,300 -1,569 Descending FlightAware ADS-B
Thu 10:34:42 AM 40.1508 -76.2511 72° East 373 429 13,500 -1,667 Descending New York Center
Thu 10:34:49 AM 40.1530 -76.2290 82° East 362 417 13,300 -1,500 Descending FlightAware ADS-B
Thu 10:35:26 AM 40.1610 -76.1510 82° East 354 407 12,400 -1,286 Descending FlightAware ADS-B
Thu 10:35:59 AM 40.1690 -76.0820 81° East 338 389 11,800 -1,043 Descending FlightAware ADS-B
Thu 10:36:35 AM 40.1760 -76.0110 83° East 325 374 11,200 -1,000 Descending FlightAware ADS-B
Thu 10:37:11 AM 40.1830 -75.9420 82° East 317 365 10,600 -1,000 Descending FlightAware ADS-B
Thu 10:37:41 AM 40.1890 -75.8840 82° East 319 367 10,100 -913 Descending FlightAware ADS-B
Thu 10:37:57 AM 40.1920 -75.8580 81° East 319 367 9,900 -979 Descending FlightAware ADS-B
Thu 10:40:00 AM 40.2082 -75.5837 72° East  Level FlightAware Approximate
Thu 10:40:51 AM 40.2700 -75.5480 72° East 306 352 7,000  Level FlightAware ADS-B
Thu 10:40:58 AM 40.2760 -75.5370 54° Northeast 306 352 6,800 -1,600 Descending FlightAware ADS-B
Thu 10:41:06 AM 40.2810 -75.5280 54° Northeast 305 351 6,600 -1,714 Descending FlightAware ADS-B
Thu 10:41:12 AM 40.2870 -75.5160 57° Northeast 305 351 6,400 -657 Descending FlightAware ADS-B
Thu 10:46:35 AM 40.1800 -75.0930 108° East 218 251 3,000 -620 Descending FlightAware ADS-B
Thu 10:46:41 AM 40.1780 -75.0890 123° Southeast 220 253 3,000  Level FlightAware ADS-B
Thu 10:46:47 AM 40.1760 -75.0840 118° Southeast 220 253 3,000  Level FlightAware ADS-B
Thu 10:47:00 AM 40.1680 -75.0640 118° Southeast 212 244 3,000  Level FlightAware ADS-B
Thu 10:47:05 AM 40.1660 -75.0600 123° Southeast 205 236 3,000  Level FlightAware ADS-B
Thu 10:47:18 AM 40.1610 -75.0470 117° Southeast 197 227 3,000  Level FlightAware ADS-B
Thu 10:47:37 AM 40.1620 -75.0210 87° East 205 236 3,000  Level FlightAware ADS-B
Thu 10:47:47 AM 40.1660 -75.0080 68° East 205 236 3,000  Level FlightAware ADS-B
Thu 10:48:01 AM 40.1700 -74.9930 71° East 207 238 3,000  Level FlightAware ADS-B
Thu 10:48:05 AM 40.1720 -74.9870 66° East 206 237 3,000 -600 Level FlightAware ADS-B
Thu 10:48:11 AM 40.1740 -74.9790 72° East 205 236 2,900 -857 Descending FlightAware ADS-B
Thu 10:48:19 AM 40.1770 -74.9700 66° East 204 235 2,800 -600 Descending FlightAware ADS-B
Thu 10:48:31 AM 40.1810 -74.9580 66° East 198 228 2,700 -706 Descending FlightAware ADS-B
Thu 10:48:53 AM 40.1890 -74.9340 66° East 195 224 2,400 -913 Descending FlightAware ADS-B
Thu 10:49:17 AM 40.2040 -74.9130 47° Northeast 203 234 2,000 -1,043 Descending FlightAware ADS-B
Thu 10:49:39 AM 40.2180 -74.8920 49° Northeast 197 227 1,600 -610 Descending FlightAware ADS-B
Thu 10:50:16 AM 40.2380 -74.8660 45° Northeast 188 216 1,400 -825 Descending FlightAware ADS-B
Thu 10:50:59 AM 40.2667 -74.8333 45° Northeast 139 160 500 -1,256 Descending Philadelphia TRACON
Thu 10:52:00 AM 40.2767 -74.8135 90° East  Level Estimated
Thu 10:59:00 AM 40.2767 -74.8135 90° East  Level Estimated

Login

Don't have an account? Register now (free) for customized features, flight alerts, and more!